sensor_id;sensor_type;location;lat;lon;timestamp;pressure;altitude;pressure_sealevel;temperature;humidity
71857;BME280;63344;46.980;28.882;2022-12-18T00:02:25;101488.22;;;1.56;78.49
71857;BME280;63344;46.980;28.882;2022-12-18T00:04:53;101496.97;;;1.59;78.97
71857;BME280;63344;46.980;28.882;2022-12-18T00:07:20;101484.75;;;1.58;78.83
71857;BME280;63344;46.980;28.882;2022-12-18T00:09:48;101497.81;;;1.57;78.07
71857;BME280;63344;46.980;28.882;2022-12-18T00:12:16;101507.38;;;1.52;78.20
71857;BME280;63344;46.980;28.882;2022-12-18T00:14:44;101509.06;;;1.50;78.02
71857;BME280;63344;46.980;28.882;2022-12-18T00:17:11;101513.28;;;1.38;78.37
71857;BME280;63344;46.980;28.882;2022-12-18T00:19:39;101508.81;;;1.31;78.40
71857;BME280;63344;46.980;28.882;2022-12-18T00:22:07;101513.94;;;1.24;78.53
71857;BME280;63344;46.980;28.882;2022-12-18T00:24:34;101523.50;;;1.20;78.84
71857;BME280;63344;46.980;28.882;2022-12-18T00:27:01;101520.69;;;1.06;78.72
71857;BME280;63344;46.980;28.882;2022-12-18T00:29:28;101532.84;;;1.03;79.15
71857;BME280;63344;46.980;28.882;2022-12-18T00:31:56;101551.19;;;1.06;79.71
71857;BME280;63344;46.980;28.882;2022-12-18T00:34:24;101544.16;;;1.03;79.60
71857;BME280;63344;46.980;28.882;2022-12-18T00:36:51;101557.31;;;1.06;79.90
71857;BME280;63344;46.980;28.882;2022-12-18T00:39:19;101550.31;;;1.05;80.13
71857;BME280;63344;46.980;28.882;2022-12-18T00:41:48;101563.47;;;1.11;80.05
71857;BME280;63344;46.980;28.882;2022-12-18T00:44:33;101549.47;;;1.08;80.40
71857;BME280;63344;46.980;28.882;2022-12-18T00:47:01;101556.44;;;1.07;80.12
71857;BME280;63344;46.980;28.882;2022-12-18T00:49:28;101551.19;;;1.04;80.52
71857;BME280;63344;46.980;28.882;2022-12-18T00:51:55;101559.84;;;1.00;80.40
71857;BME280;63344;46.980;28.882;2022-12-18T00:54:22;101561.53;;;0.98;80.83
71857;BME280;63344;46.980;28.882;2022-12-18T00:56:50;101568.56;;;1.01;80.73
71857;BME280;63344;46.980;28.882;2022-12-18T00:59:18;101564.22;;;1.03;80.81
71857;BME280;63344;46.980;28.882;2022-12-18T01:01:46;101558.94;;;0.99;80.46
71857;BME280;63344;46.980;28.882;2022-12-18T01:04:14;101558.03;;;0.96;81.01
71857;BME280;63344;46.980;28.882;2022-12-18T01:06:42;101553.56;;;0.92;80.74
71857;BME280;63344;46.980;28.882;2022-12-18T01:09:10;101584.16;;;0.94;80.68
71857;BME280;63344;46.980;28.882;2022-12-18T01:11:37;101571.94;;;0.95;80.78
71857;BME280;63344;46.980;28.882;2022-12-18T01:14:05;101592.91;;;0.96;80.75
71857;BME280;63344;46.980;28.882;2022-12-18T01:16:37;101600.72;;;0.95;80.43
71857;BME280;63344;46.980;28.882;2022-12-18T01:19:08;101604.19;;;0.94;80.80
71857;BME280;63344;46.980;28.882;2022-12-18T01:21:35;101604.97;;;0.90;81.33
71857;BME280;63344;46.980;28.882;2022-12-18T01:24:03;101604.19;;;0.94;81.02
71857;BME280;63344;46.980;28.882;2022-12-18T01:26:32;101613.81;;;0.96;81.13
71857;BME280;63344;46.980;28.882;2022-12-18T01:28:59;101617.28;;;0.94;81.43
71857;BME280;63344;46.980;28.882;2022-12-18T01:31:31;101615.59;;;0.99;81.33
71857;BME280;63344;46.980;28.882;2022-12-18T01:34:03;101612.16;;;1.00;81.51
71857;BME280;63344;46.980;28.882;2022-12-18T01:36:34;101612.97;;;0.99;81.10
71857;BME280;63344;46.980;28.882;2022-12-18T01:39:05;101605.00;;;0.91;81.53
71857;BME280;63344;46.980;28.882;2022-12-18T01:41:34;101619.88;;;0.94;81.31
71857;BME280;63344;46.980;28.882;2022-12-18T01:47:28;101618.81;;;0.83;80.97
71857;BME280;63344;46.980;28.882;2022-12-18T01:49:59;101635.34;;;0.82;81.32
71857;BME280;63344;46.980;28.882;2022-12-18T01:52:30;101649.31;;;0.82;80.80
71857;BME280;63344;46.980;28.882;2022-12-18T01:55:00;101651.00;;;0.78;81.24
71857;BME280;63344;46.980;28.882;2022-12-18T01:57:29;101656.94;;;0.71;81.00
71857;BME280;63344;46.980;28.882;2022-12-18T02:00:00;101669.19;;;0.72;80.29
71857;BME280;63344;46.980;28.882;2022-12-18T02:02:29;101668.22;;;0.67;80.26
71857;BME280;63344;46.980;28.882;2022-12-18T02:04:57;101675.25;;;0.71;79.68
71857;BME280;63344;46.980;28.882;2022-12-18T02:07:50;101679.53;;;0.66;79.90
71857;BME280;63344;46.980;28.882;2022-12-18T02:10:41;101668.06;;;0.59;79.02
71857;BME280;63344;46.980;28.882;2022-12-18T02:18:47;101687.09;;;0.52;78.78
71857;BME280;63344;46.980;28.882;2022-12-18T02:21:36;101693.16;;;0.51;79.18
71857;BME280;63344;46.980;28.882;2022-12-18T02:24:45;101697.38;;;0.43;79.62
71857;BME280;63344;46.980;28.882;2022-12-18T02:27:19;101704.38;;;0.46;79.32
71857;BME280;63344;46.980;28.882;2022-12-18T02:29:52;101714.81;;;0.46;79.02
71857;BME280;63344;46.980;28.882;2022-12-18T02:32:27;101709.53;;;0.41;79.56
71857;BME280;63344;46.980;28.882;2022-12-18T02:34:57;101701.59;;;0.36;79.18
71857;BME280;63344;46.980;28.882;2022-12-18T02:37:26;101691.03;;;0.30;79.77
71857;BME280;63344;46.980;28.882;2022-12-18T02:39:55;101713.75;;;0.36;79.04
71857;BME280;63344;46.980;28.882;2022-12-18T02:42:23;101704.00;;;0.27;79.53
71857;BME280;63344;46.980;28.882;2022-12-18T02:44:51;101696.03;;;0.21;79.51
71857;BME280;63344;46.980;28.882;2022-12-18T02:47:24;101694.31;;;0.22;79.53
71857;BME280;63344;46.980;28.882;2022-12-18T02:50:16;101709.97;;;0.22;79.69
71857;BME280;63344;46.980;28.882;2022-12-18T02:58:43;101732.56;;;0.19;79.42
71857;BME280;63344;46.980;28.882;2022-12-18T03:01:38;101732.47;;;0.15;79.37
71857;BME280;63344;46.980;28.882;2022-12-18T03:06:57;101729.84;;;0.13;79.83
71857;BME280;63344;46.980;28.882;2022-12-18T03:09:32;101742.84;;;0.10;79.72
71857;BME280;63344;46.980;28.882;2022-12-18T03:12:31;101741.94;;;0.10;79.27
71857;BME280;63344;46.980;28.882;2022-12-18T03:15:25;101750.69;;;0.10;79.78
71857;BME280;63344;46.980;28.882;2022-12-18T03:17:59;101758.38;;;0.06;79.92
71857;BME280;63344;46.980;28.882;2022-12-18T03:20:31;101764.50;;;0.06;79.81
71857;BME280;63344;46.980;28.882;2022-12-18T03:23:07;101775.63;;;-0.03;80.15
71857;BME280;63344;46.980;28.882;2022-12-18T03:25:39;101780.97;;;0.02;80.11
71857;BME280;63344;46.980;28.882;2022-12-18T03:28:12;101777.44;;;0.00;80.01
71857;BME280;63344;46.980;28.882;2022-12-18T03:30:43;101782.53;;;-0.05;80.08
71857;BME280;63344;46.980;28.882;2022-12-18T03:33:21;101777.34;;;-0.03;80.26
71857;BME280;63344;46.980;28.882;2022-12-18T03:35:51;101772.22;;;0.00;80.17
71857;BME280;63344;46.980;28.882;2022-12-18T03:38:25;101793.97;;;0.01;80.23
71857;BME280;63344;46.980;28.882;2022-12-18T03:46:15;101788.47;;;-0.10;80.58
71857;BME280;63344;46.980;28.882;2022-12-18T03:48:48;101785.97;;;-0.07;80.31
71857;BME280;63344;46.980;28.882;2022-12-18T03:51:31;101787.75;;;-0.05;80.41
71857;BME280;63344;46.980;28.882;2022-12-18T03:54:06;101799.06;;;-0.06;80.66
71857;BME280;63344;46.980;28.882;2022-12-18T03:56:39;101800.81;;;-0.05;80.88
71857;BME280;63344;46.980;28.882;2022-12-18T03:59:09;101802.50;;;-0.07;80.51
71857;BME280;63344;46.980;28.882;2022-12-18T04:01:45;101814.00;;;0.02;80.75
71857;BME280;63344;46.980;28.882;2022-12-18T04:04:16;101815.00;;;0.07;80.83
71857;BME280;63344;46.980;28.882;2022-12-18T04:06:46;101816.75;;;0.06;80.40
71857;BME280;63344;46.980;28.882;2022-12-18T04:09:15;101823.81;;;0.10;80.64
71857;BME280;63344;46.980;28.882;2022-12-18T04:11:42;101828.94;;;0.07;80.38
71857;BME280;63344;46.980;28.882;2022-12-18T04:14:13;101837.03;;;0.18;80.27
71857;BME280;63344;46.980;28.882;2022-12-18T04:16:44;101849.25;;;0.19;80.27
71857;BME280;63344;46.980;28.882;2022-12-18T04:19:12;101852.03;;;0.27;80.44
71857;BME280;63344;46.980;28.882;2022-12-18T04:21:40;101864.47;;;0.37;80.23
71857;BME280;63344;46.980;28.882;2022-12-18T04:24:08;101861.94;;;0.40;80.10
71857;BME280;63344;46.980;28.882;2022-12-18T04:26:35;101869.88;;;0.45;79.79
71857;BME280;63344;46.980;28.882;2022-12-18T04:29:02;101877.78;;;0.48;79.68
71857;BME280;63344;46.980;28.882;2022-12-18T04:31:30;101880.59;;;0.57;79.45
71857;BME280;63344;46.980;28.882;2022-12-18T04:33:57;101889.31;;;0.57;79.06
71857;BME280;63344;46.980;28.882;2022-12-18T04:36:27;101888.53;;;0.60;78.37
71857;BME280;63344;46.980;28.882;2022-12-18T04:38:55;101894.72;;;0.65;78.73
71857;BME280;63344;46.980;28.882;2022-12-18T04:41:23;101895.66;;;0.67;78.62
71857;BME280;63344;46.980;28.882;2022-12-18T04:43:51;101884.22;;;0.64;78.48
71857;BME280;63344;46.980;28.882;2022-12-18T04:46:19;101889.53;;;0.67;77.99
71857;BME280;63344;46.980;28.882;2022-12-18T04:48:47;101895.72;;;0.70;77.86
71857;BME280;63344;46.980;28.882;2022-12-18T04:51:14;101887.06;;;0.73;77.58
71857;BME280;63344;46.980;28.882;2022-12-18T04:53:42;101908.81;;;0.72;77.60
71857;BME280;63344;46.980;28.882;2022-12-18T04:56:12;101917.63;;;0.75;77.56
71857;BME280;63344;46.980;28.882;2022-12-18T04:58:42;101913.22;;;0.73;77.40
71857;BME280;63344;46.980;28.882;2022-12-18T05:01:11;101922.06;;;0.79;77.51
71857;BME280;63344;46.980;28.882;2022-12-18T05:03:39;101933.47;;;0.83;77.34
71857;BME280;63344;46.980;28.882;2022-12-18T05:06:08;101937.88;;;0.84;77.11
71857;BME280;63344;46.980;28.882;2022-12-18T05:08:38;101929.94;;;0.81;76.63
71857;BME280;63344;46.980;28.882;2022-12-18T05:11:12;101939.72;;;0.88;76.87
71857;BME280;63344;46.980;28.882;2022-12-18T05:13:44;101942.25;;;0.85;76.03
71857;BME280;63344;46.980;28.882;2022-12-18T05:16:20;101932.53;;;0.79;76.27
71857;BME280;63344;46.980;28.882;2022-12-18T05:18:48;101953.53;;;0.83;76.73
71857;BME280;63344;46.980;28.882;2022-12-18T05:21:15;101953.34;;;0.75;75.60
71857;BME280;63344;46.980;28.882;2022-12-18T05:23:43;101941.00;;;0.69;75.36
71857;BME280;63344;46.980;28.882;2022-12-18T05:26:15;101960.91;;;0.63;74.64
71857;BME280;63344;46.980;28.882;2022-12-18T05:28:46;101966.09;;;0.61;74.88
71857;BME280;63344;46.980;28.882;2022-12-18T05:31:14;101977.28;;;0.55;74.71
71857;BME280;63344;46.980;28.882;2022-12-18T05:33:47;101973.44;;;0.41;74.60
71857;BME280;63344;46.980;28.882;2022-12-18T05:36:15;101989.09;;;0.39;74.84
71857;BME280;63344;46.980;28.882;2022-12-18T05:38:58;101981.94;;;0.32;74.75
71857;BME280;63344;46.980;28.882;2022-12-18T05:41:36;101995.78;;;0.28;74.62
71857;BME280;63344;46.980;28.882;2022-12-18T05:44:08;102006.97;;;0.23;74.89
71857;BME280;63344;46.980;28.882;2022-12-18T05:46:37;102021.00;;;0.26;74.65
71857;BME280;63344;46.980;28.882;2022-12-18T05:49:04;102014.06;;;0.28;74.64
71857;BME280;63344;46.980;28.882;2022-12-18T05:51:47;102041.03;;;0.27;73.92
71857;BME280;63344;46.980;28.882;2022-12-18T05:54:15;102036.31;;;0.14;74.36
71857;BME280;63344;46.980;28.882;2022-12-18T05:56:42;102038.09;;;0.15;74.23
71857;BME280;63344;46.980;28.882;2022-12-18T05:59:37;102041.53;;;0.14;73.70
71857;BME280;63344;46.980;28.882;2022-12-18T06:02:20;102043.16;;;0.09;73.47
71857;BME280;63344;46.980;28.882;2022-12-18T06:04:48;102067.47;;;0.06;73.65
71857;BME280;63344;46.980;28.882;2022-12-18T06:07:15;102058.72;;;0.04;73.30
71857;BME280;63344;46.980;28.882;2022-12-18T06:09:42;102072.59;;;0.03;72.77
71857;BME280;63344;46.980;28.882;2022-12-18T06:12:10;102057.59;;;-0.04;73.02
71857;BME280;63344;46.980;28.882;2022-12-18T06:14:37;102084.22;;;-0.17;72.89
71857;BME280;63344;46.980;28.882;2022-12-18T06:17:11;102086.66;;;-0.22;72.71
71857;BME280;63344;46.980;28.882;2022-12-18T06:19:47;102086.66;;;-0.22;72.67
71857;BME280;63344;46.980;28.882;2022-12-18T06:22:31;102074.25;;;-0.31;72.52
71857;BME280;63344;46.980;28.882;2022-12-18T06:25:20;102093.38;;;-0.30;72.01
71857;BME280;63344;46.980;28.882;2022-12-18T06:27:48;102102.13;;;-0.30;72.65
71857;BME280;63344;46.980;28.882;2022-12-18T06:30:16;102105.75;;;-0.25;72.19
71857;BME280;63344;46.980;28.882;2022-12-18T06:32:47;102102.97;;;-0.31;72.50
71857;BME280;63344;46.980;28.882;2022-12-18T06:35:24;102107.31;;;-0.31;72.15
71857;BME280;63344;46.980;28.882;2022-12-18T06:37:51;102119.50;;;-0.30;72.00
71857;BME280;63344;46.980;28.882;2022-12-18T06:40:19;102129.94;;;-0.30;72.30
71857;BME280;63344;46.980;28.882;2022-12-18T06:42:46;102129.19;;;-0.26;72.52
71857;BME280;63344;46.980;28.882;2022-12-18T06:45:16;102130.28;;;-0.19;72.44
71857;BME280;63344;46.980;28.882;2022-12-18T06:47:44;102131.09;;;-0.21;72.03
71857;BME280;63344;46.980;28.882;2022-12-18T06:50:12;102145.09;;;-0.18;72.62
71857;BME280;63344;46.980;28.882;2022-12-18T06:52:39;102144.50;;;-0.10;72.65
71857;BME280;63344;46.980;28.882;2022-12-18T06:55:10;102139.28;;;-0.10;71.97
71857;BME280;63344;46.980;28.882;2022-12-18T06:57:40;102129.88;;;-0.03;71.83
71857;BME280;63344;46.980;28.882;2022-12-18T07:00:08;102131.56;;;-0.05;72.28
71857;BME280;63344;46.980;28.882;2022-12-18T07:02:35;102139.53;;;-0.01;71.96
71857;BME280;63344;46.980;28.882;2022-12-18T07:05:05;102155.13;;;-0.04;71.70
71857;BME280;63344;46.980;28.882;2022-12-18T07:07:37;102160.59;;;0.06;71.95
71857;BME280;63344;46.980;28.882;2022-12-18T07:10:06;102153.69;;;0.08;71.67
71857;BME280;63344;46.980;28.882;2022-12-18T07:12:33;102136.97;;;0.01;71.28
71857;BME280;63344;46.980;28.882;2022-12-18T07:15:28;102164.13;;;0.08;71.40
71857;BME280;63344;46.980;28.882;2022-12-18T07:17:57;102155.34;;;0.04;71.47
71857;BME280;63344;46.980;28.882;2022-12-18T07:20:28;102161.84;;;0.18;71.45
71857;BME280;63344;46.980;28.882;2022-12-18T07:22:55;102176.09;;;0.30;71.23
71857;BME280;63344;46.980;28.882;2022-12-18T07:25:48;102172.00;;;0.39;70.66
71857;BME280;63344;46.980;28.882;2022-12-18T07:28:33;102176.81;;;0.24;70.36
71857;BME280;63344;46.980;28.882;2022-12-18T07:31:08;102189.59;;;0.15;71.05
71857;BME280;63344;46.980;28.882;2022-12-18T07:33:38;102199.88;;;0.09;70.64
71857;BME280;63344;46.980;28.882;2022-12-18T07:36:07;102188.72;;;0.14;70.98
71857;BME280;63344;46.980;28.882;2022-12-18T07:38:41;102193.91;;;0.13;70.15
71857;BME280;63344;46.980;28.882;2022-12-18T07:41:16;102183.28;;;0.07;70.63
71857;BME280;63344;46.980;28.882;2022-12-18T07:43:47;102193.72;;;0.07;70.24
71857;BME280;63344;46.980;28.882;2022-12-18T07:46:14;102208.19;;;0.24;70.45
71857;BME280;63344;46.980;28.882;2022-12-18T07:48:48;102221.41;;;0.30;70.82
71857;BME280;63344;46.980;28.882;2022-12-18T07:51:19;102199.94;;;0.41;70.13
71857;BME280;63344;46.980;28.882;2022-12-18T07:53:47;102221.06;;;0.48;69.97
71857;BME280;63344;46.980;28.882;2022-12-18T07:56:18;102232.66;;;0.58;70.05
71857;BME280;63344;46.980;28.882;2022-12-18T07:58:59;102229.03;;;0.53;69.33
71857;BME280;63344;46.980;28.882;2022-12-18T08:01:29;102227.16;;;0.49;69.25
71857;BME280;63344;46.980;28.882;2022-12-18T08:03:57;102239.47;;;0.53;69.82
71857;BME280;63344;46.980;28.882;2022-12-18T08:06:24;102216.13;;;0.59;69.67
71857;BME280;63344;46.980;28.882;2022-12-18T08:08:53;102240.34;;;0.53;69.69
71857;BME280;63344;46.980;28.882;2022-12-18T08:11:22;102242.16;;;0.56;69.78
71857;BME280;63344;46.980;28.882;2022-12-18T08:14:08;102257.03;;;0.57;69.52
71857;BME280;63344;46.980;28.882;2022-12-18T08:16:38;102265.84;;;0.61;69.38
71857;BME280;63344;46.980;28.882;2022-12-18T08:19:06;102266.53;;;0.55;69.41
71857;BME280;63344;46.980;28.882;2022-12-18T08:21:34;102265.38;;;0.45;69.61
71857;BME280;63344;46.980;28.882;2022-12-18T08:24:08;102265.44;;;0.47;70.37
71857;BME280;63344;46.980;28.882;2022-12-18T08:26:36;102274.22;;;0.49;70.09
71857;BME280;63344;46.980;28.882;2022-12-18T08:29:06;102272.59;;;0.52;70.02
71857;BME280;63344;46.980;28.882;2022-12-18T08:31:49;102266.59;;;0.56;70.02
71857;BME280;63344;46.980;28.882;2022-12-18T08:34:43;102287.50;;;0.56;69.89
71857;BME280;63344;46.980;28.882;2022-12-18T08:37:16;102277.75;;;0.51;69.22
71857;BME280;63344;46.980;28.882;2022-12-18T08:39:44;102276.72;;;0.46;69.30
71857;BME280;63344;46.980;28.882;2022-12-18T08:42:14;102291.53;;;0.45;69.79
71857;BME280;63344;46.980;28.882;2022-12-18T08:45:20;102285.41;;;0.45;70.40
71857;BME280;63344;46.980;28.882;2022-12-18T08:47:47;102284.91;;;0.56;70.38
71857;BME280;63344;46.980;28.882;2022-12-18T08:50:15;102276.34;;;0.62;70.11
71857;BME280;63344;46.980;28.882;2022-12-18T08:52:45;102275.53;;;0.65;69.24
71857;BME280;63344;46.980;28.882;2022-12-18T08:55:13;102280.59;;;0.58;69.86
71857;BME280;63344;46.980;28.882;2022-12-18T08:57:40;102272.75;;;0.58;70.26
71857;BME280;63344;46.980;28.882;2022-12-18T09:00:24;102292.06;;;0.64;69.88
71857;BME280;63344;46.980;28.882;2022-12-18T09:03:10;102297.63;;;0.74;70.17
71857;BME280;63344;46.980;28.882;2022-12-18T09:05:38;102282.75;;;0.73;69.74
71857;BME280;63344;46.980;28.882;2022-12-18T09:08:11;102297.78;;;0.81;69.77
71857;BME280;63344;46.980;28.882;2022-12-18T09:11:29;102309.06;;;0.78;69.98
71857;BME280;63344;46.980;28.882;2022-12-18T09:14:27;102294.91;;;0.71;70.07
71857;BME280;63344;46.980;28.882;2022-12-18T09:16:55;102297.84;;;0.82;70.02
71857;BME280;63344;46.980;28.882;2022-12-18T09:19:30;102298.59;;;0.78;69.87
71857;BME280;63344;46.980;28.882;2022-12-18T09:22:11;102302.00;;;0.75;70.02
71857;BME280;63344;46.980;28.882;2022-12-18T09:24:44;102288.84;;;0.72;70.58
71857;BME280;63344;46.980;28.882;2022-12-18T09:27:11;102300.13;;;0.71;70.73
71857;BME280;63344;46.980;28.882;2022-12-18T09:29:39;102301.22;;;0.79;70.94
71857;BME280;63344;46.980;28.882;2022-12-18T09:32:10;102288.44;;;0.89;70.75
71857;BME280;63344;46.980;28.882;2022-12-18T09:34:41;102303.03;;;1.12;70.14
71857;BME280;63344;46.980;28.882;2022-12-18T09:37:08;102285.97;;;1.27;69.50
71857;BME280;63344;46.980;28.882;2022-12-18T09:39:50;102279.75;;;1.93;67.95
71857;BME280;63344;46.980;28.882;2022-12-18T09:42:23;102276.25;;;3.18;65.35
71857;BME280;63344;46.980;28.882;2022-12-18T09:44:53;102277.31;;;5.11;60.68
71857;BME280;63344;46.980;28.882;2022-12-18T09:47:33;102272.44;;;5.51;56.08
71857;BME280;63344;46.980;28.882;2022-12-18T09:50:17;102291.56;;;4.57;57.22
71857;BME280;63344;46.980;28.882;2022-12-18T09:52:54;102278.59;;;3.50;59.53
71857;BME280;63344;46.980;28.882;2022-12-18T09:55:34;102283.56;;;2.88;61.25
71857;BME280;63344;46.980;28.882;2022-12-18T09:58:12;102289.34;;;2.30;63.22
71857;BME280;63344;46.980;28.882;2022-12-18T10:00:40;102312.34;;;2.04;64.06
71857;BME280;63344;46.980;28.882;2022-12-18T10:03:10;102298.78;;;1.84;64.83
71857;BME280;63344;46.980;28.882;2022-12-18T10:23:04;102316.59;;;1.31;66.89
71857;BME280;63344;46.980;28.882;2022-12-18T10:26:08;102302.69;;;1.32;66.51
71857;BME280;63344;46.980;28.882;2022-12-18T10:28:37;102315.72;;;1.30;67.27
71857;BME280;63344;46.980;28.882;2022-12-18T10:31:22;102303.56;;;1.32;67.15
71857;BME280;63344;46.980;28.882;2022-12-18T10:33:53;102290.00;;;1.14;67.12
71857;BME280;63344;46.980;28.882;2022-12-18T10:36:27;102322.88;;;1.04;67.26
71857;BME280;63344;46.980;28.882;2022-12-18T10:39:14;102334.47;;;1.14;67.14
71857;BME280;63344;46.980;28.882;2022-12-18T10:41:42;102323.78;;;1.06;67.31
71857;BME280;63344;46.980;28.882;2022-12-18T10:44:21;102340.50;;;1.11;67.23
71857;BME280;63344;46.980;28.882;2022-12-18T10:46:54;102337.13;;;1.15;67.65
71857;BME280;63344;46.980;28.882;2022-12-18T10:49:27;102308.28;;;1.12;67.14
71857;BME280;63344;46.980;28.882;2022-12-18T10:52:22;102335.97;;;1.06;67.46
71857;BME280;63344;46.980;28.882;2022-12-18T10:54:52;102336.03;;;1.07;67.57
71857;BME280;63344;46.980;28.882;2022-12-18T10:59:58;102343.88;;;1.07;68.04
71857;BME280;63344;46.980;28.882;2022-12-18T11:02:37;102338.50;;;1.03;68.21
71857;BME280;63344;46.980;28.882;2022-12-18T11:05:27;102344.63;;;1.03;68.44
71857;BME280;63344;46.980;28.882;2022-12-18T11:07:56;102325.50;;;1.04;67.83
71857;BME280;63344;46.980;28.882;2022-12-18T11:12:56;102346.78;;;0.86;68.30
71857;BME280;63344;46.980;28.882;2022-12-18T11:15:28;102330.81;;;0.77;68.73
71857;BME280;63344;46.980;28.882;2022-12-18T11:17:57;102329.66;;;0.67;68.86
71857;BME280;63344;46.980;28.882;2022-12-18T11:20:34;102355.72;;;0.64;69.03
71857;BME280;63344;46.980;28.882;2022-12-18T11:23:04;102346.84;;;0.59;69.97
71857;BME280;63344;46.980;28.882;2022-12-18T11:25:58;102348.81;;;0.66;70.17
71857;BME280;63344;46.980;28.882;2022-12-18T11:28:50;102342.53;;;0.61;69.72
71857;BME280;63344;46.980;28.882;2022-12-18T11:32:12;102367.75;;;0.59;70.61
71857;BME280;63344;46.980;28.882;2022-12-18T11:43:38;102369.25;;;0.51;70.24
71857;BME280;63344;46.980;28.882;2022-12-18T11:46:14;102374.47;;;0.51;70.00
71857;BME280;63344;46.980;28.882;2022-12-18T11:51:57;102365.31;;;0.36;70.13
71857;BME280;63344;46.980;28.882;2022-12-18T11:54:26;102399.19;;;0.33;69.82
71857;BME280;63344;46.980;28.882;2022-12-18T11:57:42;102397.25;;;0.28;69.98
71857;BME280;63344;46.980;28.882;2022-12-18T12:00:12;102401.09;;;0.39;69.72
71857;BME280;63344;46.980;28.882;2022-12-18T12:03:02;102409.81;;;0.39;68.91
71857;BME280;63344;46.980;28.882;2022-12-18T12:05:42;102410.19;;;0.23;68.91
71857;BME280;63344;46.980;28.882;2022-12-18T12:14:26;102415.16;;;0.15;69.60
71857;BME280;63344;46.980;28.882;2022-12-18T12:20:42;102419.81;;;0.24;69.74
71857;BME280;63344;46.980;28.882;2022-12-18T12:23:46;102437.50;;;0.33;69.58
71857;BME280;63344;46.980;28.882;2022-12-18T12:26:35;102425.84;;;0.23;69.10
71857;BME280;63344;46.980;28.882;2022-12-18T12:38:43;102449.03;;;0.12;69.60
71857;BME280;63344;46.980;28.882;2022-12-18T12:41:56;102463.03;;;0.16;69.44
71857;BME280;63344;46.980;28.882;2022-12-18T12:44:47;102444.47;;;0.07;69.73
71857;BME280;63344;46.980;28.882;2022-12-18T12:47:26;102451.91;;;0.20;69.55
71857;BME280;63344;46.980;28.882;2022-12-18T12:49:56;102456.28;;;0.21;69.78
71857;BME280;63344;46.980;28.882;2022-12-18T12:52:38;102452.84;;;0.24;69.95
71857;BME280;63344;46.980;28.882;2022-12-18T12:55:36;102442.72;;;0.33;69.65
71857;BME280;63344;46.980;28.882;2022-12-18T12:58:26;102447.16;;;0.35;69.65
71857;BME280;63344;46.980;28.882;2022-12-18T13:04:23;102462.94;;;0.38;69.42
71857;BME280;63344;46.980;28.882;2022-12-18T13:10:31;102481.25;;;0.38;68.92
71857;BME280;63344;46.980;28.882;2022-12-18T13:13:07;102476.97;;;0.41;69.07
71857;BME280;63344;46.980;28.882;2022-12-18T13:16:06;102497.00;;;0.42;69.01
71857;BME280;63344;46.980;28.882;2022-12-18T13:18:37;102483.13;;;0.43;69.30
71857;BME280;63344;46.980;28.882;2022-12-18T13:21:27;102474.22;;;0.37;68.78
71857;BME280;63344;46.980;28.882;2022-12-18T13:24:15;102486.53;;;0.40;68.94
71857;BME280;63344;46.980;28.882;2022-12-18T13:38:39;102520.66;;;0.45;69.62
71857;BME280;63344;46.980;28.882;2022-12-18T13:43:49;102526.50;;;0.37;69.75
71857;BME280;63344;46.980;28.882;2022-12-18T13:46:42;102532.84;;;0.44;69.62
71857;BME280;63344;46.980;28.882;2022-12-18T13:51:43;102515.97;;;0.36;69.70
71857;BME280;63344;46.980;28.882;2022-12-18T13:57:03;102534.75;;;0.50;69.26
71857;BME280;63344;46.980;28.882;2022-12-18T13:59:39;102541.63;;;0.46;69.00
71857;BME280;63344;46.980;28.882;2022-12-18T14:02:15;102544.19;;;0.45;68.31
71857;BME280;63344;46.980;28.882;2022-12-18T14:04:49;102549.41;;;0.45;68.68
71857;BME280;63344;46.980;28.882;2022-12-18T14:07:25;102544.78;;;0.37;68.74
71857;BME280;63344;46.980;28.882;2022-12-18T14:10:00;102549.34;;;0.43;69.14
71857;BME280;63344;46.980;28.882;2022-12-18T14:12:49;102535.25;;;0.38;69.18
71857;BME280;63344;46.980;28.882;2022-12-18T14:15:38;102548.41;;;0.41;68.55
71857;BME280;63344;46.980;28.882;2022-12-18T14:20:57;102547.19;;;0.31;68.71
71857;BME280;63344;46.980;28.882;2022-12-18T14:26:00;102559.44;;;0.32;68.96
71857;BME280;63344;46.980;28.882;2022-12-18T14:28:32;102556.84;;;0.34;68.95
71857;BME280;63344;46.980;28.882;2022-12-18T14:31:25;102560.41;;;0.36;68.52
71857;BME280;63344;46.980;28.882;2022-12-18T14:33:54;102558.50;;;0.30;68.91
71857;BME280;63344;46.980;28.882;2022-12-18T14:36:26;102554.00;;;0.26;69.08
71857;BME280;63344;46.980;28.882;2022-12-18T14:38:58;102571.78;;;0.36;68.88
71857;BME280;63344;46.980;28.882;2022-12-18T14:41:26;102569.69;;;0.26;68.54
71857;BME280;63344;46.980;28.882;2022-12-18T14:43:54;102573.25;;;0.28;69.04
71857;BME280;63344;46.980;28.882;2022-12-18T14:46:38;102588.06;;;0.29;68.50
71857;BME280;63344;46.980;28.882;2022-12-18T14:51:59;102608.81;;;0.25;68.94
71857;BME280;63344;46.980;28.882;2022-12-18T14:54:32;102590.38;;;0.20;68.76
71857;BME280;63344;46.980;28.882;2022-12-18T14:57:24;102598.16;;;0.18;69.05
71857;BME280;63344;46.980;28.882;2022-12-18T15:00:15;102615.81;;;0.26;68.90
71857;BME280;63344;46.980;28.882;2022-12-18T15:02:43;102624.66;;;0.29;68.73
71857;BME280;63344;46.980;28.882;2022-12-18T15:07:43;102602.72;;;0.24;68.76
71857;BME280;63344;46.980;28.882;2022-12-18T15:10:14;102633.88;;;0.19;68.58
71857;BME280;63344;46.980;28.882;2022-12-18T15:13:28;102641.66;;;0.18;69.19
71857;BME280;63344;46.980;28.882;2022-12-18T15:18:13;102624.34;;;0.20;69.60
71857;BME280;63344;46.980;28.882;2022-12-18T15:26:22;102655.91;;;0.26;69.60
71857;BME280;63344;46.980;28.882;2022-12-18T15:28:55;102658.47;;;0.25;69.83